Time,TemperatureF,DewpointF,PressureIn,WindDirection,WindDirectionDegrees,WindSpeedMPH,WindSpeedGustMPH,Humidity,HourlyPrecipIn,Conditions,Clouds,dailyrainin,SoftwareType,DateUTC
2013-04-12 00:00:00,41.6,20.8,30.19,NE,47,4.0,11.0,43,0.00,,---,0.06,VWS V14.01,2013-04-12 04:00:00,
2013-04-12 00:05:00,41.5,20.1,30.19,NNE,27,6.0,11.0,42,0.00,,---,0.00,VWS V14.01,2013-04-12 04:05:00,
2013-04-12 00:10:00,41.3,20.0,30.19,NE,54,3.0,11.0,42,0.00,,---,0.00,VWS V14.01,2013-04-12 04:10:00,
2013-04-12 00:15:00,41.3,22.1,30.20,NNE,14,7.0,11.0,46,0.00,,---,0.00,VWS V14.01,2013-04-12 04:15:00,
2013-04-12 00:20:00,41.2,21.5,30.20,NE,53,6.0,11.0,45,0.00,,---,0.00,VWS V14.01,2013-04-12 04:20:00,
2013-04-12 00:25:00,41.1,21.9,30.21,NNE,22,4.0,13.0,46,0.00,,---,0.00,VWS V14.01,2013-04-12 04:25:00,
2013-04-12 00:30:00,41.0,23.3,30.21,NNE,17,2.0,13.0,49,0.00,,---,0.00,VWS V14.01,2013-04-12 04:30:00,
2013-04-12 00:35:00,40.8,21.1,30.21,East,82,5.0,9.0,45,0.00,,---,0.00,VWS V14.01,2013-04-12 04:35:00,
2013-04-12 00:40:00,40.8,23.1,30.21,NE,49,3.0,9.0,49,0.00,,---,0.00,VWS V14.01,2013-04-12 04:40:00,
2013-04-12 00:45:00,40.7,20.5,30.21,ENE,62,3.0,11.0,44,0.00,,---,0.00,VWS V14.01,2013-04-12 04:45:00,
2013-04-12 00:50:00,40.6,19.3,30.21,NE,45,6.0,12.0,42,0.00,,---,0.00,VWS V14.01,2013-04-12 04:50:00,
2013-04-12 00:55:00,40.5,21.4,30.21,NE,37,5.0,12.0,46,0.00,,---,0.00,VWS V14.01,2013-04-12 04:55:00,
2013-04-12 01:00:00,40.4,21.3,30.21,NE,45,5.0,12.0,46,0.00,,---,0.00,VWS V14.01,2013-04-12 05:00:00,
2013-04-12 01:05:00,40.3,21.7,30.21,ENE,57,9.0,11.0,47,0.00,,---,0.00,VWS V14.01,2013-04-12 05:05:00,
2013-04-12 01:10:00,40.2,21.6,30.22,NW,316,2.0,11.0,47,0.00,,---,0.00,VWS V14.01,2013-04-12 05:10:00,
2013-04-12 01:15:00,40.1,21.5,30.22,NE,53,3.0,11.0,47,0.00,,---,0.00,VWS V14.01,2013-04-12 05:15:00,
2013-04-12 01:20:00,40.0,21.4,30.22,NNW,344,7.0,12.0,47,0.00,,---,0.00,VWS V14.01,2013-04-12 05:20:00,
2013-04-12 01:25:00,39.9,21.3,30.21,NE,39,10.0,12.0,47,0.00,,---,0.00,VWS V14.01,2013-04-12 05:25:00,
2013-04-12 01:30:00,39.7,20.6,30.20,NE,50,2.0,12.0,46,0.00,,---,0.00,VWS V14.01,2013-04-12 05:30:00,
2013-04-12 01:35:00,39.5,19.9,30.21,NE,51,6.0,9.0,45,0.00,,---,0.00,VWS V14.01,2013-04-12 05:35:00,
2013-04-12 01:40:00,39.5,19.9,30.21,NE,49,7.0,9.0,45,0.00,,---,0.00,VWS V14.01,2013-04-12 05:40:00,
2013-04-12 01:45:00,39.4,19.3,30.21,NE,49,5.0,9.0,44,0.00,,---,0.00,VWS V14.01,2013-04-12 05:45:00,
2013-04-12 01:50:00,39.4,20.4,30.21,ENE,57,2.0,9.0,46,0.00,,---,0.00,VWS V14.01,2013-04-12 05:50:00,
2013-04-12 01:55:00,39.3,20.8,30.21,NE,53,6.0,9.0,47,0.00,,---,0.00,VWS V14.01,2013-04-12 05:55:00,
2013-04-12 02:00:00,39.3,19.8,30.21,NNW,345,4.0,9.0,45,0.00,,---,0.00,VWS V14.01,2013-04-12 06:00:00,
2013-04-12 02:05:00,39.3,20.3,30.22,NE,49,4.0,6.0,46,0.00,,---,0.00,VWS V14.01,2013-04-12 06:05:00,
2013-04-12 02:10:00,39.2,20.7,30.22,NE,44,6.0,9.0,47,0.00,,---,0.00,VWS V14.01,2013-04-12 06:10:00,
2013-04-12 02:15:00,39.1,19.0,30.22,NE,49,4.0,11.0,44,0.00,,---,0.00,VWS V14.01,2013-04-12 06:15:00,
2013-04-12 02:20:00,39.1,20.1,30.22,NE,56,5.0,11.0,46,0.00,,---,0.00,VWS V14.01,2013-04-12 06:20:00,
2013-04-12 02:25:00,39.0,20.5,30.22,NE,43,6.0,11.0,47,0.00,,---,0.00,VWS V14.01,2013-04-12 06:25:00,
2013-04-12 02:30:00,38.9,19.4,30.22,ENE,57,3.0,11.0,45,0.00,,---,0.00,VWS V14.01,2013-04-12 06:30:00,
2013-04-12 02:35:00,38.8,20.8,30.22,NE,49,6.0,9.0,48,0.00,,---,0.00,VWS V14.01,2013-04-12 06:35:00,
2013-04-12 02:40:00,38.7,20.2,30.21,ENE,65,4.0,9.0,47,0.00,,---,0.00,VWS V14.01,2013-04-12 06:40:00,
2013-04-12 02:45:00,38.7,20.7,30.22,ENE,65,8.0,9.0,48,0.00,,---,0.00,VWS V14.01,2013-04-12 06:45:00,
2013-04-12 02:50:00,38.6,21.1,30.21,NNE,17,4.0,9.0,49,0.00,,---,0.00,VWS V14.01,2013-04-12 06:50:00,
2013-04-12 02:55:00,38.5,20.0,30.21,NE,49,4.0,9.0,47,0.00,,---,0.00,VWS V14.01,2013-04-12 06:55:00,
2013-04-12 03:00:00,38.4,19.9,30.22,ENE,64,5.0,9.0,47,0.00,,---,0.00,VWS V14.01,2013-04-12 07:00:00,
2013-04-12 03:05:00,38.4,19.9,30.22,ENE,57,6.0,8.0,47,0.00,,---,0.00,VWS V14.01,2013-04-12 07:05:00,
2013-04-12 03:10:00,38.3,19.9,30.22,NE,46,2.0,8.0,47,0.00,,---,0.00,VWS V14.01,2013-04-12 07:10:00,
2013-04-12 03:15:00,38.2,19.3,30.22,NE,39,2.0,9.0,46,0.00,,---,0.00,VWS V14.01,2013-04-12 07:15:00,
2013-04-12 03:20:00,38.1,19.7,30.22,North,352,8.0,9.0,47,0.00,,---,0.00,VWS V14.01,2013-04-12 07:20:00,
2013-04-12 03:25:00,38.1,19.2,30.23,North,359,3.0,9.0,46,0.00,,---,0.00,VWS V14.01,2013-04-12 07:25:00,
2013-04-12 03:30:00,38.0,18.6,30.23,ENE,58,6.0,9.0,45,0.00,,---,0.00,VWS V14.01,2013-04-12 07:30:00,
2013-04-12 03:35:00,38.0,18.0,30.23,ENE,65,6.0,8.0,44,0.00,,---,0.00,VWS V14.01,2013-04-12 07:35:00,
2013-04-12 03:40:00,37.9,18.5,30.23,NE,54,5.0,10.0,45,0.00,,---,0.00,VWS V14.01,2013-04-12 07:40:00,
2013-04-12 03:45:00,37.9,18.5,30.23,NE,42,5.0,10.0,45,0.00,,---,0.00,VWS V14.01,2013-04-12 07:45:00,
2013-04-12 03:51:00,37.9,17.4,30.23,ENE,59,5.0,11.0,43,0.00,,---,0.00,VWS V14.01,2013-04-12 07:51:00,
2013-04-12 03:56:00,37.8,18.4,30.23,NE,34,5.0,11.0,45,0.00,,---,0.00,VWS V14.01,2013-04-12 07:56:00,
2013-04-12 04:01:00,37.7,19.8,30.23,NE,50,3.0,11.0,48,0.00,,---,0.00,VWS V14.01,2013-04-12 08:01:00,
2013-04-12 04:06:00,37.7,18.3,30.23,NE,51,4.0,8.0,45,0.00,,---,0.00,VWS V14.01,2013-04-12 08:06:00,
2013-04-12 04:11:00,37.6,18.2,30.23,ENE,62,6.0,8.0,45,0.00,,---,0.00,VWS V14.01,2013-04-12 08:11:00,
2013-04-12 04:16:00,37.6,19.7,30.24,NE,51,3.0,8.0,48,0.00,,---,0.00,VWS V14.01,2013-04-12 08:16:00,
2013-04-12 04:21:00,37.5,19.1,30.24,NE,49,4.0,8.0,47,0.00,,---,0.00,VWS V14.01,2013-04-12 08:21:00,
2013-04-12 04:26:00,37.4,18.5,30.24,ENE,65,5.0,8.0,46,0.00,,---,0.00,VWS V14.01,2013-04-12 08:26:00,
2013-04-12 04:31:00,37.4,19.0,30.24,NE,46,5.0,5.0,47,0.00,,---,0.00,VWS V14.01,2013-04-12 08:31:00,
2013-04-12 04:36:00,37.4,20.0,30.24,NE,53,2.0,8.0,49,0.00,,---,0.00,VWS V14.01,2013-04-12 08:36:00,
2013-04-12 04:41:00,37.3,19.9,30.24,NNE,27,1.0,8.0,49,0.00,,---,0.00,VWS V14.01,2013-04-12 08:41:00,
2013-04-12 04:46:00,37.3,19.9,30.24,NNE,27,3.0,8.0,49,0.00,,---,0.00,VWS V14.01,2013-04-12 08:46:00,
2013-04-12 04:51:00,37.3,20.4,30.24,NE,56,6.0,8.0,50,0.00,,---,0.00,VWS V14.01,2013-04-12 08:51:00,
2013-04-12 04:56:00,37.2,19.8,30.24,NE,53,4.0,8.0,49,0.00,,---,0.00,VWS V14.01,2013-04-12 08:56:00,
2013-04-12 05:01:00,37.2,21.2,30.24,ENE,59,4.0,5.0,52,0.00,,---,0.00,VWS V14.01,2013-04-12 09:01:00,
2013-04-12 05:06:00,37.0,21.5,30.24,North,360,2.0,6.0,53,0.00,,---,0.00,VWS V14.01,2013-04-12 09:06:00,
2013-04-12 05:11:00,36.9,20.5,30.25,NE,54,5.0,7.0,51,0.00,,---,0.00,VWS V14.01,2013-04-12 09:11:00,
2013-04-12 05:16:00,36.8,19.0,30.25,NE,51,3.0,7.0,48,0.00,,---,0.00,VWS V14.01,2013-04-12 09:16:00,
2013-04-12 05:22:00,36.7,20.8,30.25,NE,49,5.0,7.0,52,0.00,,---,0.00,VWS V14.01,2013-04-12 09:22:00,
2013-04-12 05:26:00,36.6,19.3,30.25,NE,41,5.0,8.0,49,0.00,,---,0.00,VWS V14.01,2013-04-12 09:26:00,
2013-04-12 05:32:00,36.3,19.5,30.25,ENE,72,3.0,4.0,50,0.00,,---,0.00,VWS V14.01,2013-04-12 09:32:00,
2013-04-12 05:37:00,36.2,19.8,30.25,NE,51,3.0,7.0,51,0.00,,---,0.00,VWS V14.01,2013-04-12 09:37:00,
2013-04-12 05:42:00,36.0,20.1,30.25,ENE,60,5.0,8.0,52,0.00,,---,0.00,VWS V14.01,2013-04-12 09:42:00,
2013-04-12 05:47:00,35.9,20.5,30.25,NNE,32,6.0,8.0,53,0.00,,---,0.00,VWS V14.01,2013-04-12 09:47:00,
2013-04-12 05:52:00,35.7,20.3,30.25,ENE,59,5.0,8.0,53,0.00,,---,0.00,VWS V14.01,2013-04-12 09:52:00,
2013-04-12 05:57:00,35.5,20.5,30.25,NE,47,5.0,8.0,54,0.00,,---,0.00,VWS V14.01,2013-04-12 09:57:00,
2013-04-12 06:02:00,35.4,20.9,30.26,NE,44,3.0,5.0,55,0.00,,---,0.00,VWS V14.01,2013-04-12 10:02:00,
2013-04-12 06:07:00,35.3,22.0,30.26,NE,46,3.0,6.0,58,0.00,,---,0.00,VWS V14.01,2013-04-12 10:07:00,
2013-04-12 06:12:00,35.1,21.8,30.26,NE,55,3.0,6.0,58,0.00,,---,0.00,VWS V14.01,2013-04-12 10:12:00,
2013-04-12 06:17:00,35.1,21.0,30.26,ENE,68,3.0,7.0,56,0.00,,---,0.00,VWS V14.01,2013-04-12 10:17:00,
2013-04-12 06:22:00,35.2,21.5,30.25,NE,51,2.0,7.0,57,0.00,,---,0.00,VWS V14.01,2013-04-12 10:22:00,
2013-04-12 06:27:00,35.2,21.1,30.26,NE,49,2.0,7.0,56,0.00,,---,0.00,VWS V14.01,2013-04-12 10:27:00,
2013-04-12 06:32:00,35.3,20.8,30.25,NE,54,4.0,5.0,55,0.00,,---,0.00,VWS V14.01,2013-04-12 10:32:00,
2013-04-12 06:37:00,35.4,21.7,30.25,NE,53,1.0,5.0,57,0.00,,---,0.00,VWS V14.01,2013-04-12 10:37:00,
2013-04-12 06:42:00,35.4,22.1,30.25,NE,44,2.0,5.0,58,0.00,,---,0.00,VWS V14.01,2013-04-12 10:42:00,
2013-04-12 06:47:00,35.4,22.1,30.25,NNW,340,2.0,5.0,58,0.00,,---,0.00,VWS V14.01,2013-04-12 10:47:00,
2013-04-12 06:52:00,35.3,21.6,30.26,NE,50,3.0,8.0,57,0.00,,---,0.00,VWS V14.01,2013-04-12 10:52:00,
2013-04-12 06:57:00,35.3,21.2,30.26,ENE,68,3.0,8.0,56,0.00,,---,0.00,VWS V14.01,2013-04-12 10:57:00,
2013-04-12 07:02:00,35.4,21.3,30.26,NE,36,4.0,5.0,56,0.00,,---,0.00,VWS V14.01,2013-04-12 11:02:00,
2013-04-12 07:07:00,35.4,21.3,30.26,ENE,65,2.0,6.0,56,0.00,,---,0.00,VWS V14.01,2013-04-12 11:07:00,
2013-04-12 07:12:00,35.5,21.4,30.26,NE,45,2.0,6.0,56,0.00,,---,0.00,VWS V14.01,2013-04-12 11:12:00,
2013-04-12 07:17:00,35.4,22.1,30.26,NE,54,4.0,6.0,58,0.00,,---,0.00,VWS V14.01,2013-04-12 11:17:00,
2013-04-12 07:22:00,35.2,21.5,30.25,ENE,68,3.0,6.0,57,0.00,,---,0.00,VWS V14.01,2013-04-12 11:22:00,
2013-04-12 07:27:00,35.1,21.4,30.26,NNE,16,2.0,6.0,57,0.00,,---,0.00,VWS V14.01,2013-04-12 11:27:00,
2013-04-12 07:32:00,35.0,21.7,30.25,North,1,4.0,4.0,58,0.00,,---,0.00,VWS V14.01,2013-04-12 11:32:00,
2013-04-12 07:37:00,35.0,22.1,30.25,NE,41,2.0,6.0,59,0.00,,---,0.00,VWS V14.01,2013-04-12 11:37:00,
2013-04-12 07:42:00,34.9,22.4,30.25,NNE,23,4.0,6.0,60,0.00,,---,0.00,VWS V14.01,2013-04-12 11:42:00,
2013-04-12 07:47:00,34.9,22.8,30.25,North,4,2.0,6.0,61,0.00,,---,0.00,VWS V14.01,2013-04-12 11:47:00,
2013-04-12 07:52:00,34.9,22.4,30.25,NE,56,3.0,6.0,60,0.00,,---,0.00,VWS V14.01,2013-04-12 11:52:00,
2013-04-12 07:57:00,35.0,22.9,30.25,NNE,16,2.0,6.0,61,0.00,,---,0.00,VWS V14.01,2013-04-12 11:57:00,
2013-04-12 08:02:00,35.1,23.4,30.24,NE,54,3.0,5.0,62,0.00,,---,0.00,VWS V14.01,2013-04-12 12:02:00,
2013-04-12 08:07:00,34.8,24.6,30.24,NNE,21,2.0,5.0,66,0.00,,---,0.00,VWS V14.01,2013-04-12 12:07:00,
2013-04-12 08:12:00,34.6,24.8,30.25,NE,46,3.0,5.0,67,0.00,,---,0.00,VWS V14.01,2013-04-12 12:12:00,
2013-04-12 08:17:00,34.6,23.7,30.24,NE,49,2.0,5.0,64,0.00,,---,0.00,VWS V14.01,2013-04-12 12:17:00,
2013-04-12 08:22:00,34.6,23.7,30.23,NE,42,4.0,7.0,64,0.00,,---,0.00,VWS V14.01,2013-04-12 12:22:00,
2013-04-12 08:27:00,34.7,24.1,30.23,NE,56,2.0,7.0,65,0.00,,---,0.00,VWS V14.01,2013-04-12 12:27:00,
2013-04-12 08:33:00,34.9,24.3,30.23,NE,51,3.0,5.0,65,0.00,,---,0.00,VWS V14.01,2013-04-12 12:33:00,
2013-04-12 08:38:00,34.8,23.5,30.23,NNE,32,4.0,6.0,63,0.00,,---,0.00,VWS V14.01,2013-04-12 12:38:00,
2013-04-12 08:43:00,34.8,23.9,30.23,NE,41,3.0,6.0,64,0.00,,---,0.00,VWS V14.01,2013-04-12 12:43:00,
2013-04-12 08:48:00,34.8,23.5,30.22,NE,42,2.0,6.0,63,0.00,,---,0.00,VWS V14.01,2013-04-12 12:48:00,
2013-04-12 08:53:00,34.9,23.6,30.22,NE,49,4.0,6.0,63,0.00,,---,0.00,VWS V14.01,2013-04-12 12:53:00,
2013-04-12 08:58:00,35.1,24.2,30.22,East,82,3.0,7.0,64,0.00,,---,0.00,VWS V14.01,2013-04-12 12:58:00,
2013-04-12 09:03:00,35.2,23.9,30.23,NE,40,2.0,4.0,63,0.00,,---,0.00,VWS V14.01,2013-04-12 13:03:00,
2013-04-12 09:08:00,35.3,23.6,30.22,NE,44,5.0,8.0,62,0.00,,---,0.00,VWS V14.01,2013-04-12 13:08:00,
2013-04-12 09:13:00,35.5,24.2,30.22,NE,54,3.0,8.0,63,0.00,,---,0.00,VWS V14.01,2013-04-12 13:13:00,
2013-04-12 09:18:00,35.5,23.4,30.22,ENE,59,3.0,8.0,61,0.00,,---,0.00,VWS V14.01,2013-04-12 13:18:00,
2013-04-12 09:23:00,35.6,23.5,30.21,NE,40,4.0,8.0,61,0.00,,---,0.00,VWS V14.01,2013-04-12 13:23:00,
2013-04-12 09:28:00,35.7,23.6,30.21,NE,43,3.0,8.0,61,0.00,,---,0.00,VWS V14.01,2013-04-12 13:28:00,
2013-04-12 09:33:00,35.8,24.1,30.21,ENE,60,3.0,4.0,62,0.00,,---,0.00,VWS V14.01,2013-04-12 13:33:00,
2013-04-12 09:38:00,35.8,24.1,30.20,ENE,72,3.0,7.0,62,0.00,,---,0.00,VWS V14.01,2013-04-12 13:38:00,
2013-04-12 09:43:00,35.8,23.3,30.20,NE,46,2.0,7.0,60,0.00,,---,0.00,VWS V14.01,2013-04-12 13:43:00,
2013-04-12 09:48:00,35.9,24.2,30.19,ENE,72,3.0,7.0,62,0.00,,---,0.00,VWS V14.01,2013-04-12 13:48:00,
2013-04-12 09:53:00,35.9,24.2,30.20,ENE,59,2.0,7.0,62,0.00,,---,0.00,VWS V14.01,2013-04-12 13:53:00,
2013-04-12 09:58:00,35.9,23.4,30.20,ENE,63,4.0,7.0,60,0.00,,---,0.00,VWS V14.01,2013-04-12 13:58:00,
2013-04-12 10:03:00,35.9,24.2,30.20,NNE,14,3.0,6.0,62,0.00,,---,0.00,VWS V14.01,2013-04-12 14:03:00,
2013-04-12 10:08:00,36.0,24.6,30.20,NE,46,3.0,8.0,63,0.00,,---,0.00,VWS V14.01,2013-04-12 14:08:00,
2013-04-12 10:13:00,36.1,24.4,30.20,ENE,72,3.0,8.0,62,0.00,,---,0.00,VWS V14.01,2013-04-12 14:13:00,
2013-04-12 10:18:00,36.2,24.8,30.20,NE,50,5.0,8.0,63,0.01,,---,0.01,VWS V14.01,2013-04-12 14:18:00,
2013-04-12 10:23:00,36.3,24.9,30.20,NE,54,2.0,8.0,63,0.01,,---,0.01,VWS V14.01,2013-04-12 14:23:00,
2013-04-12 10:28:00,36.6,26.3,30.19,NE,49,1.0,8.0,66,0.01,,---,0.01,VWS V14.01,2013-04-12 14:28:00,
2013-04-12 10:33:00,36.8,26.1,30.18,ENE,65,4.0,6.0,65,0.01,,---,0.01,VWS V14.01,2013-04-12 14:33:00,
2013-04-12 10:38:00,36.8,26.1,30.17,ENE,61,4.0,8.0,65,0.01,,---,0.01,VWS V14.01,2013-04-12 14:38:00,
2013-04-12 10:43:00,36.8,26.5,30.17,ENE,60,5.0,8.0,66,0.01,,---,0.01,VWS V14.01,2013-04-12 14:43:00,
2013-04-12 10:48:00,36.8,26.9,30.17,East,84,4.0,8.0,67,0.01,,---,0.01,VWS V14.01,2013-04-12 14:48:00,
2013-04-12 10:53:00,36.8,26.5,30.18,NE,44,2.0,9.0,66,0.01,,---,0.01,VWS V14.01,2013-04-12 14:53:00,
2013-04-12 10:58:00,36.8,26.1,30.18,ENE,75,3.0,9.0,65,0.01,,---,0.01,VWS V14.01,2013-04-12 14:58:00,
2013-04-12 11:03:00,36.8,26.5,30.17,East,86,2.0,5.0,66,0.01,,---,0.01,VWS V14.01,2013-04-12 15:03:00,
2013-04-12 11:08:00,36.8,25.8,30.17,NE,41,3.0,8.0,64,0.01,,---,0.01,VWS V14.01,2013-04-12 15:08:00,
2013-04-12 11:13:00,36.9,26.6,30.16,NE,56,2.0,8.0,66,0.01,,---,0.01,VWS V14.01,2013-04-12 15:13:00,
2013-04-12 11:18:00,36.9,26.6,30.16,NE,37,2.0,8.0,66,0.01,,---,0.01,VWS V14.01,2013-04-12 15:18:00,
2013-04-12 11:23:00,37.0,27.4,30.16,NNE,29,6.0,9.0,68,0.01,,---,0.01,VWS V14.01,2013-04-12 15:23:00,
2013-04-12 11:29:00,37.1,27.9,30.15,ENE,70,2.0,9.0,69,0.01,,---,0.01,VWS V14.01,2013-04-12 15:29:00,
2013-04-12 11:34:00,37.1,27.9,30.15,NE,51,4.0,7.0,69,0.00,,---,0.01,VWS V14.01,2013-04-12 15:34:00,
2013-04-12 11:39:00,37.1,27.9,30.15,ENE,77,6.0,7.0,69,0.00,,---,0.01,VWS V14.01,2013-04-12 15:39:00,
2013-04-12 11:44:00,37.1,27.9,30.14,NE,51,2.0,8.0,69,0.00,,---,0.01,VWS V14.01,2013-04-12 15:44:00,
2013-04-12 11:49:00,37.1,27.9,30.14,ENE,70,6.0,8.0,69,0.00,,---,0.01,VWS V14.01,2013-04-12 15:49:00,
2013-04-12 11:54:00,37.1,28.2,30.14,ENE,68,3.0,8.0,70,0.00,,---,0.01,VWS V14.01,2013-04-12 15:54:00,
2013-04-12 11:59:00,37.2,29.0,30.14,ENE,62,4.0,8.0,72,0.00,,---,0.01,VWS V14.01,2013-04-12 15:59:00,
2013-04-12 12:04:00,37.0,28.5,30.13,NE,49,2.0,8.0,71,0.00,,---,0.01,VWS V14.01,2013-04-12 16:04:00,
2013-04-12 12:09:00,37.0,28.8,30.13,NE,53,6.0,8.0,72,0.00,,---,0.01,VWS V14.01,2013-04-12 16:09:00,
2013-04-12 12:14:00,37.0,28.8,30.14,ENE,73,6.0,8.0,72,0.00,,---,0.01,VWS V14.01,2013-04-12 16:14:00,
2013-04-12 12:19:00,36.9,28.7,30.14,ENE,68,8.0,9.0,72,0.00,,---,0.01,VWS V14.01,2013-04-12 16:19:00,
2013-04-12 12:24:00,36.9,29.4,30.14,NE,49,3.0,9.0,74,0.00,,---,0.01,VWS V14.01,2013-04-12 16:24:00,
2013-04-12 12:29:00,37.0,29.8,30.13,NE,42,3.0,9.0,75,0.00,,---,0.01,VWS V14.01,2013-04-12 16:29:00,
2013-04-12 12:34:00,37.1,30.6,30.13,ENE,68,4.0,5.0,77,0.00,,---,0.01,VWS V14.01,2013-04-12 16:34:00,
2013-04-12 12:39:00,36.9,30.7,30.13,ESE,122,6.0,10.0,78,0.00,,---,0.01,VWS V14.01,2013-04-12 16:39:00,
2013-04-12 12:44:00,36.7,30.8,30.12,ENE,60,4.0,10.0,79,0.00,,---,0.01,VWS V14.01,2013-04-12 16:44:00,
2013-04-12 12:49:00,36.7,30.8,30.13,NE,40,3.0,10.0,79,0.00,,---,0.01,VWS V14.01,2013-04-12 16:49:00,
2013-04-12 12:54:00,36.8,31.5,30.14,East,98,3.0,10.0,81,0.00,,---,0.01,VWS V14.01,2013-04-12 16:54:00,
2013-04-12 12:59:00,36.8,31.2,30.14,ENE,57,3.0,10.0,80,0.01,,---,0.02,VWS V14.01,2013-04-12 16:59:00,
2013-04-12 13:04:00,36.8,31.5,30.14,NE,53,0.0,5.0,81,0.01,,---,0.02,VWS V14.01,2013-04-12 17:04:00,
2013-04-12 13:09:00,36.9,31.0,30.14,East,90,1.0,5.0,79,0.01,,---,0.02,VWS V14.01,2013-04-12 17:09:00,
2013-04-12 13:14:00,36.9,31.6,30.14,NE,51,1.0,5.0,81,0.01,,---,0.02,VWS V14.01,2013-04-12 17:14:00,
2013-04-12 13:19:00,36.7,31.7,30.13,ENE,75,4.0,6.0,82,0.02,,---,0.03,VWS V14.01,2013-04-12 17:19:00,
2013-04-12 13:24:00,36.5,31.8,30.12,East,91,3.0,6.0,83,0.03,,---,0.04,VWS V14.01,2013-04-12 17:24:00,
2013-04-12 13:29:00,36.4,32.0,30.11,East,79,1.0,6.0,84,0.04,,---,0.05,VWS V14.01,2013-04-12 17:29:00,
2013-04-12 13:34:00,36.2,31.8,30.11,East,93,4.0,5.0,84,0.05,,---,0.06,VWS V14.01,2013-04-12 17:34:00,
2013-04-12 13:39:00,36.1,31.7,30.11,ENE,70,3.0,6.0,84,0.05,,---,0.06,VWS V14.01,2013-04-12 17:39:00,
2013-04-12 13:44:00,36.0,31.9,30.11,ENE,78,1.0,6.0,85,0.06,,---,0.07,VWS V14.01,2013-04-12 17:44:00,
2013-04-12 13:49:00,36.1,32.3,30.11,ENE,60,4.0,7.0,86,0.07,,---,0.08,VWS V14.01,2013-04-12 17:49:00,
2013-04-12 13:54:00,36.0,32.2,30.11,NE,51,3.0,7.0,86,0.08,,---,0.09,VWS V14.01,2013-04-12 17:54:00,
2013-04-12 13:59:00,35.9,32.4,30.11,ENE,61,1.0,7.0,87,0.09,,---,0.10,VWS V14.01,2013-04-12 17:59:00,
2013-04-12 14:05:00,35.8,32.6,30.11,East,93,0.0,4.0,88,0.08,,---,0.10,VWS V14.01,2013-04-12 18:05:00,
2013-04-12 14:10:00,35.7,32.8,30.12,East,82,4.0,8.0,89,0.08,,---,0.10,VWS V14.01,2013-04-12 18:10:00,
2013-04-12 14:15:00,35.7,33.1,30.11,ENE,73,3.0,8.0,90,0.09,,---,0.11,VWS V14.01,2013-04-12 18:15:00,
2013-04-12 14:20:00,35.6,32.7,30.09,ENE,59,2.0,8.0,89,0.09,,---,0.11,VWS V14.01,2013-04-12 18:20:00,
2013-04-12 14:25:00,35.7,33.1,30.10,ESE,104,3.0,8.0,90,0.09,,---,0.11,VWS V14.01,2013-04-12 18:25:00,
2013-04-12 15:26:00,35.4,32.5,30.08,ESE,108,2.0,11.0,89,0.06,,---,0.16,VWS V14.01,2013-04-12 19:26:00,
2013-04-12 15:31:00,35.5,32.9,30.07,WNW,295,1.0,4.0,90,0.04,,---,0.16,VWS V14.01,2013-04-12 19:31:00,
2013-04-12 15:36:00,35.4,32.5,30.07,SE,129,3.0,6.0,89,0.05,,---,0.17,VWS V14.01,2013-04-12 19:36:00,
2013-04-12 15:41:00,35.5,32.6,30.07,ENE,65,1.0,7.0,89,0.05,,---,0.17,VWS V14.01,2013-04-12 19:41:00,
2013-04-12 15:46:00,35.5,32.9,30.07,ESE,108,3.0,7.0,90,0.06,,---,0.18,VWS V14.01,2013-04-12 19:46:00,
2013-04-12 15:51:00,35.3,32.4,30.06,SSW,210,1.0,7.0,89,0.06,,---,0.18,VWS V14.01,2013-04-12 19:51:00,
2013-04-12 15:56:00,35.4,32.5,30.06,NE,56,4.0,7.0,89,0.06,,---,0.18,VWS V14.01,2013-04-12 19:56:00,
2013-04-12 16:01:00,35.5,32.6,30.06,ESE,123,0.0,2.0,89,0.04,,---,0.18,VWS V14.01,2013-04-12 20:01:00,
2013-04-12 16:07:00,35.5,32.6,30.06,ENE,62,2.0,6.0,89,0.04,,---,0.18,VWS V14.01,2013-04-12 20:07:00,
2013-04-12 16:12:00,35.4,32.5,30.06,North,349,2.0,6.0,89,0.04,,---,0.19,VWS V14.01,2013-04-12 20:12:00,
2013-04-12 16:17:00,35.3,32.1,30.05,NE,56,3.0,6.0,88,0.05,,---,0.19,VWS V14.01,2013-04-12 20:17:00,
2013-04-12 16:22:00,35.3,32.1,30.05,ESE,107,1.0,6.0,88,0.05,,---,0.19,VWS V14.01,2013-04-12 20:22:00,
2013-04-12 16:27:00,35.5,32.6,30.05,ENE,76,2.0,6.0,89,0.05,,---,0.19,VWS V14.01,2013-04-12 20:27:00,
2013-04-12 16:32:00,35.5,32.3,30.04,NE,56,1.0,3.0,88,0.03,,---,0.19,VWS V14.01,2013-04-12 20:32:00,
2013-04-12 16:37:00,35.5,32.3,30.04,ENE,73,3.0,8.0,88,0.03,,---,0.19,VWS V14.01,2013-04-12 20:37:00,
2013-04-12 16:42:00,35.6,32.7,30.04,ENE,71,5.0,8.0,89,0.03,,---,0.19,VWS V14.01,2013-04-12 20:42:00,
2013-04-12 16:47:00,35.5,32.6,30.04,ESE,108,4.0,9.0,89,0.03,,---,0.19,VWS V14.01,2013-04-12 20:47:00,
2013-04-12 16:52:00,35.3,32.7,30.03,ENE,76,2.0,9.0,90,0.03,,---,0.19,VWS V14.01,2013-04-12 20:52:00,
2013-04-12 16:57:00,35.3,32.9,30.04,ENE,75,6.0,9.0,91,0.03,,---,0.19,VWS V14.01,2013-04-12 20:57:00,
2013-04-12 17:02:00,35.2,32.8,30.03,ESE,113,3.0,3.0,91,0.01,,---,0.19,VWS V14.01,2013-04-12 21:02:00,
2013-04-12 17:07:00,35.3,33.2,30.03,NE,41,2.0,7.0,92,0.02,,---,0.20,VWS V14.01,2013-04-12 21:07:00,
2013-04-12 17:12:00,35.2,33.1,30.03,East,79,1.0,7.0,92,0.02,,---,0.20,VWS V14.01,2013-04-12 21:12:00,
2013-04-12 17:17:00,35.1,33.3,30.03,NE,55,4.0,9.0,93,0.02,,---,0.20,VWS V14.01,2013-04-12 21:17:00,
2013-04-12 17:22:00,35.0,33.2,30.03,ESE,113,0.0,9.0,93,0.02,,---,0.20,VWS V14.01,2013-04-12 21:22:00,
2013-04-12 17:27:00,35.2,33.7,30.02,East,79,2.0,9.0,94,0.02,,---,0.20,VWS V14.01,2013-04-12 21:27:00,
2013-04-12 17:32:00,35.6,33.8,30.03,SE,124,0.0,4.0,93,0.02,,---,0.21,VWS V14.01,2013-04-12 21:32:00,
2013-04-12 17:37:00,35.6,33.5,30.03,ESE,118,1.0,11.0,92,0.02,,---,0.21,VWS V14.01,2013-04-12 21:37:00,
2013-04-12 17:42:00,35.5,33.4,30.03,East,79,3.0,11.0,92,0.02,,---,0.21,VWS V14.01,2013-04-12 21:42:00,
2013-04-12 17:47:00,35.3,33.2,30.03,ENE,75,0.0,11.0,92,0.02,,---,0.21,VWS V14.01,2013-04-12 21:47:00,
2013-04-12 17:52:00,35.3,33.5,30.02,ENE,65,4.0,11.0,93,0.02,,---,0.21,VWS V14.01,2013-04-12 21:52:00,
2013-04-12 17:57:00,35.4,33.6,30.02,SE,142,1.0,11.0,93,0.02,,---,0.21,VWS V14.01,2013-04-12 21:57:00,
2013-04-12 18:02:00,35.4,33.6,30.02,East,91,0.0,1.0,93,0.02,,---,0.21,VWS V14.01,2013-04-12 22:02:00,
2013-04-12 18:07:00,35.4,33.6,30.02,ENE,78,1.0,8.0,93,0.02,,---,0.21,VWS V14.01,2013-04-12 22:07:00,
2013-04-12 18:12:00,35.3,33.5,30.01,East,97,2.0,8.0,93,0.02,,---,0.21,VWS V14.01,2013-04-12 22:12:00,
2013-04-12 18:17:00,35.3,33.5,30.02,ESE,113,2.0,8.0,93,0.02,,---,0.21,VWS V14.01,2013-04-12 22:17:00,
2013-04-12 18:22:00,35.2,33.4,30.01,East,90,2.0,8.0,93,0.02,,---,0.21,VWS V14.01,2013-04-12 22:22:00,
2013-04-12 18:27:00,35.3,33.2,30.01,East,94,5.0,8.0,92,0.03,,---,0.22,VWS V14.01,2013-04-12 22:27:00,
2013-04-12 18:32:00,35.3,33.5,30.01,WNW,294,3.0,4.0,93,0.01,,---,0.22,VWS V14.01,2013-04-12 22:32:00,
2013-04-12 18:37:00,35.3,33.2,30.01,ESE,103,1.0,7.0,92,0.01,,---,0.22,VWS V14.01,2013-04-12 22:37:00,
2013-04-12 18:42:00,35.2,33.1,30.01,ENE,57,4.0,7.0,92,0.01,,---,0.22,VWS V14.01,2013-04-12 22:42:00,
2013-04-12 18:47:00,35.2,33.4,30.00,ENE,60,3.0,12.0,93,0.01,,---,0.22,VWS V14.01,2013-04-12 22:47:00,
2013-04-12 18:52:00,35.2,33.7,30.00,ENE,57,5.0,12.0,94,0.01,,---,0.22,VWS V14.01,2013-04-12 22:52:00,
2013-04-12 18:57:00,35.2,33.7,30.00,ENE,77,4.0,12.0,94,0.01,,---,0.22,VWS V14.01,2013-04-12 22:57:00,
2013-04-12 19:02:00,35.2,33.7,30.00,North,9,6.0,6.0,94,0.01,,---,0.22,VWS V14.01,2013-04-12 23:02:00,
2013-04-12 19:07:00,35.2,33.9,29.99,ENE,62,6.0,9.0,95,0.01,,---,0.22,VWS V14.01,2013-04-12 23:07:00,
2013-04-12 19:12:00,35.1,33.8,29.99,NE,43,3.0,10.0,95,0.01,,---,0.22,VWS V14.01,2013-04-12 23:12:00,
2013-04-12 19:17:00,35.2,33.9,29.98,East,89,8.0,10.0,95,0.01,,---,0.22,VWS V14.01,2013-04-12 23:17:00,
2013-04-12 19:22:00,35.1,33.8,29.98,ENE,68,3.0,10.0,95,0.02,,---,0.23,VWS V14.01,2013-04-12 23:22:00,
2013-04-12 19:27:00,35.3,34.0,29.97,ENE,62,6.0,10.0,95,0.02,,---,0.23,VWS V14.01,2013-04-12 23:27:00,
2013-04-12 19:32:00,35.5,34.5,29.97,NE,54,4.0,7.0,96,0.01,,---,0.23,VWS V14.01,2013-04-12 23:32:00,
2013-04-12 19:37:00,35.5,34.2,29.97,ENE,78,6.0,7.0,95,0.01,,---,0.23,VWS V14.01,2013-04-12 23:37:00,
2013-04-12 19:42:00,35.6,34.6,29.97,ENE,72,7.0,9.0,96,0.01,,---,0.23,VWS V14.01,2013-04-12 23:42:00,
2013-04-12 19:47:00,35.6,34.3,29.97,ENE,75,5.0,12.0,95,0.01,,---,0.23,VWS V14.01,2013-04-12 23:47:00,
2013-04-12 19:52:00,35.5,34.2,29.96,ENE,68,7.0,12.0,95,0.01,,---,0.23,VWS V14.01,2013-04-12 23:52:00,
2013-04-12 19:57:00,35.6,34.3,29.96,NE,47,4.0,12.0,95,0.01,,---,0.23,VWS V14.01,2013-04-12 23:57:00,
2013-04-12 20:02:00,35.6,34.3,29.96,NNE,25,5.0,11.0,95,0.01,,---,0.23,VWS V14.01,2013-04-13 00:02:00,
2013-04-12 20:07:00,35.6,34.3,29.96,ENE,77,5.0,12.0,95,0.01,,---,0.23,VWS V14.01,2013-04-13 00:07:00,
2013-04-12 20:12:00,35.7,34.4,29.96,NE,54,5.0,12.0,95,0.02,,---,0.24,VWS V14.01,2013-04-13 00:12:00,
2013-04-12 20:17:00,35.7,34.4,29.96,ENE,57,4.0,12.0,95,0.02,,---,0.24,VWS V14.01,2013-04-13 00:17:00,
2013-04-12 20:22:00,35.8,34.8,29.95,NE,39,5.0,12.0,96,0.02,,---,0.24,VWS V14.01,2013-04-13 00:22:00,
2013-04-12 20:27:00,35.9,34.9,29.95,ENE,68,6.0,12.0,96,0.02,,---,0.24,VWS V14.01,2013-04-13 00:27:00,
2013-04-12 20:32:00,35.9,34.9,29.96,ENE,59,6.0,7.0,96,0.01,,---,0.24,VWS V14.01,2013-04-13 00:32:00,
2013-04-12 20:37:00,35.9,34.9,29.96,NE,35,4.0,12.0,96,0.01,,---,0.24,VWS V14.01,2013-04-13 00:37:00,
2013-04-12 20:42:00,36.0,35.0,29.95,ENE,68,5.0,12.0,96,0.01,,---,0.24,VWS V14.01,2013-04-13 00:42:00,
2013-04-12 20:47:00,36.0,35.0,29.95,ENE,72,5.0,12.0,96,0.01,,---,0.24,VWS V14.01,2013-04-13 00:47:00,
2013-04-12 20:53:00,36.0,35.0,29.95,NE,53,7.0,12.0,96,0.02,,---,0.25,VWS V14.01,2013-04-13 00:53:00,
2013-04-12 20:58:00,36.0,35.0,29.94,ENE,62,5.0,12.0,96,0.02,,---,0.25,VWS V14.01,2013-04-13 00:58:00,
2013-04-12 21:03:00,36.0,35.0,29.94,ENE,77,6.0,7.0,96,0.02,,---,0.25,VWS V14.01,2013-04-13 01:03:00,
2013-04-12 21:08:00,36.1,35.1,29.95,East,79,6.0,10.0,96,0.02,,---,0.25,VWS V14.01,2013-04-13 01:08:00,
2013-04-12 21:13:00,36.2,35.2,29.95,East,100,6.0,10.0,96,0.02,,---,0.25,VWS V14.01,2013-04-13 01:13:00,
2013-04-12 21:18:00,36.1,35.1,29.95,ENE,59,6.0,10.0,96,0.02,,---,0.25,VWS V14.01,2013-04-13 01:18:00,
2013-04-12 21:23:00,36.2,35.2,29.95,NE,53,5.0,10.0,96,0.02,,---,0.25,VWS V14.01,2013-04-13 01:23:00,
2013-04-12 21:28:00,36.3,35.5,29.94,NE,47,7.0,12.0,97,0.02,,---,0.25,VWS V14.01,2013-04-13 01:28:00,
2013-04-12 21:33:00,36.3,35.5,29.94,ENE,57,3.0,8.0,97,0.01,,---,0.25,VWS V14.01,2013-04-13 01:33:00,
2013-04-12 21:38:00,36.4,35.6,29.93,ENE,65,7.0,12.0,97,0.01,,---,0.25,VWS V14.01,2013-04-13 01:38:00,
2013-04-12 21:43:00,36.4,35.6,29.93,ESE,104,8.0,12.0,97,0.01,,---,0.25,VWS V14.01,2013-04-13 01:43:00,
2013-04-12 21:48:00,36.3,35.3,29.93,ENE,65,7.0,12.0,96,0.01,,---,0.25,VWS V14.01,2013-04-13 01:48:00,
2013-04-12 21:53:00,36.3,35.3,29.93,ENE,65,6.0,12.0,96,0.02,,---,0.26,VWS V14.01,2013-04-13 01:53:00,
2013-04-12 21:58:00,36.3,35.3,29.93,NNE,23,4.0,12.0,96,0.02,,---,0.26,VWS V14.01,2013-04-13 01:58:00,
2013-04-12 22:03:00,36.4,35.4,29.92,NE,49,7.0,9.0,96,0.01,,---,0.26,VWS V14.01,2013-04-13 02:03:00,
2013-04-12 22:08:00,36.3,35.3,29.93,ENE,60,8.0,10.0,96,0.01,,---,0.26,VWS V14.01,2013-04-13 02:08:00,
2013-04-12 22:13:00,36.4,35.4,29.92,ENE,65,8.0,12.0,96,0.01,,---,0.26,VWS V14.01,2013-04-13 02:13:00,
2013-04-12 22:18:00,36.5,35.5,29.92,NNE,32,7.0,12.0,96,0.01,,---,0.26,VWS V14.01,2013-04-13 02:18:00,
2013-04-12 22:23:00,36.5,35.5,29.92,ENE,70,5.0,12.0,96,0.01,,---,0.26,VWS V14.01,2013-04-13 02:23:00,
2013-04-12 22:28:00,36.5,35.7,29.91,NE,37,6.0,12.0,97,0.01,,---,0.26,VWS V14.01,2013-04-13 02:28:00,
2013-04-12 22:33:00,36.5,35.5,29.91,ENE,73,5.0,9.0,96,0.01,,---,0.26,VWS V14.01,2013-04-13 02:33:00,
2013-04-12 22:38:00,36.5,35.5,29.91,ENE,57,6.0,10.0,96,0.01,,---,0.26,VWS V14.01,2013-04-13 02:38:00,
2013-04-12 22:43:00,36.4,35.4,29.91,ENE,65,5.0,11.0,96,0.01,,---,0.26,VWS V14.01,2013-04-13 02:43:00,
2013-04-12 22:48:00,36.5,35.7,29.90,ENE,74,5.0,11.0,97,0.01,,---,0.26,VWS V14.01,2013-04-13 02:48:00,
2013-04-12 22:53:00,36.5,35.5,29.90,NE,53,8.0,11.0,96,0.01,,---,0.26,VWS V14.01,2013-04-13 02:53:00,
2013-04-12 22:58:00,36.7,35.9,29.90,NE,39,4.0,11.0,97,0.01,,---,0.26,VWS V14.01,2013-04-13 02:58:00,
2013-04-12 23:03:00,36.6,35.8,29.90,ENE,69,3.0,9.0,97,0.00,,---,0.26,VWS V14.01,2013-04-13 03:03:00,
2013-04-12 23:08:00,36.5,35.5,29.90,NE,39,6.0,11.0,96,0.00,,---,0.26,VWS V14.01,2013-04-13 03:08:00,
2013-04-12 23:13:00,36.6,35.8,29.90,NNE,31,5.0,11.0,97,0.00,,---,0.26,VWS V14.01,2013-04-13 03:13:00,
2013-04-12 23:18:00,36.5,35.7,29.90,NE,53,8.0,12.0,97,0.00,,---,0.26,VWS V14.01,2013-04-13 03:18:00,
2013-04-12 23:23:00,36.4,35.6,29.90,ENE,59,7.0,12.0,97,0.00,,---,0.26,VWS V14.01,2013-04-13 03:23:00,
2013-04-12 23:28:00,36.4,35.6,29.90,ENE,57,5.0,12.0,97,0.00,,---,0.26,VWS V14.01,2013-04-13 03:28:00,
2013-04-12 23:33:00,36.4,35.6,29.88,ENE,68,4.0,11.0,97,0.00,,---,0.26,VWS V14.01,2013-04-13 03:33:00,
2013-04-12 23:38:00,36.3,35.5,29.88,ENE,59,9.0,11.0,97,0.00,,---,0.26,VWS V14.01,2013-04-13 03:38:00,
2013-04-12 23:43:00,36.2,35.4,29.89,ENE,71,5.0,11.0,97,0.01,,---,0.27,VWS V14.01,2013-04-13 03:43:00,
2013-04-12 23:48:00,36.3,35.5,29.89,ENE,60,5.0,11.0,97,0.01,,---,0.27,VWS V14.01,2013-04-13 03:48:00,
2013-04-12 23:53:00,36.3,35.5,29.90,NE,46,5.0,11.0,97,0.01,,---,0.27,VWS V14.01,2013-04-13 03:53:00,
2013-04-12 23:58:00,36.4,35.6,29.90,NE,41,7.0,11.0,97,0.01,,---,0.27,VWS V14.01,2013-04-13 03:58:00,